createdAt,value
2019-03-22T00:00:17.565Z,65.65
2019-03-22T00:02:46.308Z,65.50
2019-03-22T00:05:15.224Z,65.77
2019-03-22T00:07:48.490Z,65.87
2019-03-22T00:10:17.004Z,65.77
2019-03-22T00:12:45.689Z,66.35
2019-03-22T00:15:15.354Z,66.79
2019-03-22T00:17:44.090Z,66.88
2019-03-22T00:20:13.055Z,66.35
2019-03-22T00:22:41.726Z,66.82
2019-03-22T00:25:10.414Z,67.27
2019-03-22T00:27:39.094Z,67.62
2019-03-22T00:30:08.826Z,69.59
2019-03-22T00:32:37.501Z,68.19
2019-03-22T00:35:07.368Z,68.24
2019-03-22T00:37:36.047Z,68.57
2019-03-22T00:40:06.834Z,68.75
2019-03-22T00:42:35.532Z,68.87
2019-03-22T00:45:08.268Z,69.06
2019-03-22T00:47:36.943Z,69.44
2019-03-22T00:50:13.684Z,69.16
2019-03-22T00:52:42.361Z,69.31
2019-03-22T00:55:11.429Z,69.90
2019-03-22T00:57:40.105Z,70.28
2019-03-22T01:00:11.445Z,70.67
2019-03-22T01:02:40.116Z,70.70
2019-03-22T01:05:10.388Z,70.92
2019-03-22T01:07:39.119Z,70.84
2019-03-22T01:10:13.244Z,71.12
2019-03-22T01:12:41.927Z,71.31
2019-03-22T01:15:12.892Z,71.94
2019-03-22T01:17:42.045Z,72.00
2019-03-22T01:20:12.423Z,72.24
2019-03-22T01:22:41.097Z,72.57
2019-03-22T01:25:10.880Z,72.42
2019-03-22T01:27:41.020Z,72.76
2019-03-22T01:30:13.196Z,72.62
2019-03-22T01:32:41.879Z,72.64
2019-03-22T01:35:11.447Z,72.78
2019-03-22T01:37:40.164Z,71.47
2019-03-22T01:40:11.034Z,71.08
2019-03-22T01:42:39.819Z,70.66
2019-03-22T01:45:11.227Z,70.61
2019-03-22T01:47:40.084Z,71.02
2019-03-22T01:50:11.689Z,71.58
2019-03-22T01:52:40.362Z,71.68
2019-03-22T01:55:09.037Z,72.22
2019-03-22T01:57:37.706Z,72.02
2019-03-22T02:00:09.335Z,72.15
2019-03-22T02:02:38.004Z,72.35
2019-03-22T02:05:07.290Z,72.48
2019-03-22T02:07:35.954Z,72.27
2019-03-22T02:10:07.673Z,72.44
2019-03-22T02:12:36.410Z,72.01
2019-03-22T02:15:07.754Z,71.92
2019-03-22T02:17:36.430Z,71.48
2019-03-22T02:20:07.869Z,72.03
2019-03-22T02:22:36.541Z,71.37
2019-03-22T02:25:06.720Z,71.38
2019-03-22T02:27:35.481Z,71.46
2019-03-22T02:30:05.961Z,71.76
2019-03-22T02:32:34.635Z,71.74
2019-03-22T02:35:03.705Z,71.60
2019-03-22T02:37:32.381Z,71.65
2019-03-22T02:40:01.225Z,72.00
2019-03-22T02:42:29.898Z,72.11
2019-03-22T02:44:58.769Z,72.23
2019-03-22T02:47:27.495Z,71.93
2019-03-22T02:49:56.182Z,71.78
2019-03-22T02:52:24.897Z,71.83
2019-03-22T02:54:55.006Z,71.76
2019-03-22T02:57:23.680Z,71.42
2019-03-22T02:59:52.695Z,71.70
2019-03-22T03:02:21.365Z,71.46
2019-03-22T03:04:50.054Z,71.78
2019-03-22T03:07:18.897Z,72.29
2019-03-22T03:09:47.558Z,73.16
2019-03-22T03:12:16.232Z,73.44
2019-03-22T03:14:44.898Z,73.77
2019-03-22T03:17:13.568Z,73.96
2019-03-22T03:19:42.302Z,74.01
2019-03-22T03:22:10.974Z,74.11
2019-03-22T03:24:39.638Z,74.72
2019-03-22T03:27:08.313Z,75.02
2019-03-22T03:29:37.072Z,74.83
2019-03-22T03:32:05.943Z,74.72
2019-03-22T03:34:34.629Z,74.88
2019-03-22T03:37:03.322Z,74.35
2019-03-22T03:39:31.984Z,74.20
2019-03-22T03:42:00.871Z,74.65
2019-03-22T03:44:30.110Z,74.61
2019-03-22T03:46:58.781Z,74.60
2019-03-22T03:49:27.501Z,73.63
2019-03-22T03:51:56.235Z,73.28
2019-03-22T03:54:24.908Z,73.06
2019-03-22T03:56:53.591Z,73.26
2019-03-22T03:59:22.274Z,73.58
2019-03-22T04:01:50.940Z,73.40
2019-03-22T04:04:19.619Z,73.69
2019-03-22T04:06:48.312Z,73.54
2019-03-22T04:09:16.983Z,73.44
2019-03-22T04:11:45.734Z,72.97
2019-03-22T04:14:14.418Z,72.30
2019-03-22T04:16:43.280Z,72.58
2019-03-22T04:19:11.945Z,73.00
2019-03-22T04:21:40.618Z,71.83
2019-03-22T04:24:09.297Z,71.36
2019-03-22T04:29:15.295Z,71.41
2019-03-22T04:31:43.960Z,71.53
2019-03-22T04:34:12.634Z,71.64
2019-03-22T04:36:41.346Z,71.70
2019-03-22T04:39:10.519Z,71.53
2019-03-22T04:41:39.489Z,71.21
2019-03-22T04:44:08.189Z,70.86
2019-03-22T04:46:37.725Z,70.44
2019-03-22T04:49:06.999Z,70.52
2019-03-22T04:51:35.977Z,70.59
2019-03-22T04:54:06.483Z,70.81
2019-03-22T04:56:37.921Z,70.97
2019-03-22T04:59:18.339Z,70.58
2019-03-22T05:01:41.324Z,69.93
2019-03-22T05:04:11.392Z,69.45
2019-03-22T05:06:41.972Z,69.13
2019-03-22T05:09:12.092Z,69.08
2019-03-22T05:11:42.996Z,69.05
2019-03-22T05:14:14.516Z,68.98
2019-03-22T05:16:45.639Z,68.83
2019-03-22T05:19:15.216Z,68.23
2019-03-22T05:21:45.094Z,68.11
2019-03-22T05:24:18.148Z,66.81
2019-03-22T05:26:47.655Z,64.87
2019-03-22T05:29:17.634Z,63.04
2019-03-22T05:32:05.327Z,62.01
2019-03-22T05:34:34.007Z,59.87
2019-03-22T05:37:02.995Z,57.53
2019-03-22T05:39:31.665Z,55.98
2019-03-22T05:42:00.373Z,55.51
2019-03-22T05:44:29.050Z,53.35
2019-03-22T05:46:57.869Z,51.46
2019-03-22T05:49:26.556Z,51.49
2019-03-22T05:51:55.229Z,53.34
2019-03-22T05:54:23.901Z,53.42
2019-03-22T05:56:52.706Z,51.93
2019-03-22T05:59:21.391Z,51.28
2019-03-22T06:01:50.284Z,50.73
2019-03-22T06:04:18.964Z,49.80
2019-03-22T06:06:47.649Z,49.12
2019-03-22T06:09:16.331Z,48.35
2019-03-22T06:11:45.151Z,47.56
2019-03-22T06:14:14.058Z,47.51
2019-03-22T06:16:42.794Z,47.28
2019-03-22T06:19:11.683Z,47.91
2019-03-22T06:21:40.369Z,48.92
2019-03-22T06:24:09.051Z,48.18
2019-03-22T06:26:37.732Z,47.88
2019-03-22T06:29:06.740Z,46.41
2019-03-22T06:31:35.638Z,45.85
2019-03-22T06:34:04.434Z,45.92
2019-03-22T06:36:33.764Z,44.89
2019-03-22T06:39:02.657Z,45.06
2019-03-22T06:41:31.595Z,44.31
2019-03-22T06:44:00.576Z,43.48
2019-03-22T06:46:29.262Z,42.66
2019-03-22T06:48:58.160Z,42.13
2019-03-22T06:51:26.863Z,42.06
2019-03-22T06:53:55.663Z,42.06
2019-03-22T06:56:24.949Z,41.44
2019-03-22T06:58:53.748Z,40.21
2019-03-22T07:01:22.469Z,40.02
2019-03-22T07:03:51.227Z,39.93
2019-03-22T07:06:21.771Z,40.95
2019-03-22T07:08:50.523Z,39.49
2019-03-22T07:11:19.643Z,38.12
2019-03-22T07:13:48.462Z,37.82
2019-03-22T07:16:17.690Z,37.14
2019-03-22T07:18:46.607Z,36.24
2019-03-22T07:21:15.302Z,34.88
2019-03-22T07:23:44.975Z,34.65
2019-03-22T07:26:13.746Z,33.73
2019-03-22T07:28:42.486Z,33.68
2019-03-22T07:31:11.264Z,32.61
2019-03-22T07:33:40.237Z,32.61
2019-03-22T07:36:08.990Z,31.58
2019-03-22T07:38:38.297Z,32.17
2019-03-22T07:41:07.510Z,31.61
2019-03-22T07:43:36.246Z,30.29
2019-03-22T07:46:07.161Z,32.00
2019-03-22T07:48:36.060Z,31.39
2019-03-22T07:51:04.939Z,30.16
2019-03-22T07:53:33.928Z,28.14
2019-03-22T07:56:03.158Z,28.82
2019-03-22T07:58:32.105Z,29.25
2019-03-22T08:01:01.041Z,28.34
2019-03-22T08:03:31.432Z,27.34
2019-03-22T08:06:00.199Z,26.52
2019-03-22T08:08:28.910Z,25.65
2019-03-22T08:10:57.742Z,25.30
2019-03-22T08:13:26.490Z,25.16
2019-03-22T08:15:57.694Z,23.85
2019-03-22T08:18:26.527Z,24.28
2019-03-22T08:20:58.583Z,24.66
2019-03-22T08:23:27.480Z,24.24
2019-03-22T08:25:56.325Z,24.86
2019-03-22T08:28:25.446Z,24.80
2019-03-22T08:30:54.530Z,24.77
2019-03-22T08:33:23.429Z,24.18
2019-03-22T08:35:52.331Z,23.36
2019-03-22T08:38:21.021Z,22.59
2019-03-22T08:40:49.952Z,22.23
2019-03-22T08:43:19.000Z,21.04
2019-03-22T08:45:50.666Z,20.95
2019-03-22T08:48:19.416Z,23.28
2019-03-22T08:50:48.374Z,21.77
2019-03-22T08:53:25.407Z,20.85
2019-03-22T08:55:54.681Z,21.35
2019-03-22T08:58:23.547Z,21.63
2019-03-22T09:00:57.739Z,20.97
2019-03-22T09:03:23.181Z,20.22
2019-03-22T09:05:51.977Z,20.82
2019-03-22T09:08:20.703Z,20.64
2019-03-22T09:10:49.443Z,21.01
2019-03-22T09:13:18.156Z,21.35
2019-03-22T09:15:47.255Z,21.38
2019-03-22T09:18:16.010Z,21.64
2019-03-22T09:20:45.957Z,20.62
2019-03-22T09:23:14.840Z,19.49
2019-03-22T09:25:43.605Z,18.86
2019-03-22T09:28:12.467Z,18.22
2019-03-22T09:30:41.628Z,19.09
2019-03-22T09:33:13.235Z,21.33
2019-03-22T09:35:40.853Z,20.07
2019-03-22T09:38:13.148Z,18.82
2019-03-22T09:40:40.589Z,18.61
2019-03-22T09:43:09.625Z,19.48
2019-03-22T09:48:14.771Z,18.14
2019-03-22T09:50:44.452Z,19.18
2019-03-22T09:53:14.911Z,17.84
2019-03-22T09:55:44.076Z,16.28
2019-03-22T09:58:12.962Z,15.96
2019-03-22T10:00:41.963Z,15.61
2019-03-22T10:03:11.302Z,16.12
2019-03-22T10:05:39.982Z,16.23
2019-03-22T10:08:08.913Z,15.56
2019-03-22T10:10:37.676Z,16.59
2019-03-22T10:13:06.566Z,16.06
2019-03-22T10:15:35.747Z,16.61
2019-03-22T10:18:04.515Z,15.88
2019-03-22T10:20:33.559Z,16.23
2019-03-22T10:23:02.313Z,16.38
2019-03-22T10:25:31.270Z,16.45
2019-03-22T10:28:00.004Z,18.23
2019-03-22T10:30:30.837Z,20.64
2019-03-22T10:32:59.673Z,19.94
2019-03-22T10:35:28.440Z,19.25
2019-03-22T10:38:00.831Z,17.98
2019-03-22T10:40:27.738Z,16.85
2019-03-22T10:43:02.867Z,16.17
2019-03-22T10:45:35.246Z,15.98
2019-03-22T10:48:04.152Z,15.98
2019-03-22T10:50:47.185Z,15.39
2019-03-22T10:53:15.854Z,15.90
2019-03-22T10:55:44.590Z,18.49
2019-03-22T10:58:20.942Z,17.29
2019-03-22T11:00:44.315Z,17.24
2019-03-22T11:03:14.781Z,15.76
2019-03-22T11:05:45.133Z,15.17
2019-03-22T11:08:14.769Z,15.94
2019-03-22T11:10:44.640Z,15.69
2019-03-22T11:13:19.692Z,16.36
2019-03-22T11:15:48.965Z,17.08
2019-03-22T11:18:18.833Z,17.96
2019-03-22T11:20:47.699Z,17.40
2019-03-22T11:23:17.622Z,18.42
2019-03-22T11:25:46.440Z,16.91
2019-03-22T11:28:15.635Z,18.12
2019-03-22T11:30:44.539Z,16.87
2019-03-22T11:33:13.221Z,15.93
2019-03-22T11:35:41.912Z,14.79
2019-03-22T11:38:10.685Z,16.12
2019-03-22T11:40:39.637Z,15.73
2019-03-22T11:43:09.165Z,14.94
2019-03-22T11:45:39.910Z,14.55
2019-03-22T11:48:08.785Z,14.01
2019-03-22T11:50:37.506Z,14.00
2019-03-22T11:53:06.383Z,16.40
2019-03-22T11:55:35.186Z,16.31
2019-03-22T11:58:08.718Z,15.01
2019-03-22T12:00:37.626Z,14.11
2019-03-22T12:03:06.398Z,13.62
2019-03-22T12:05:40.330Z,13.73
2019-03-22T12:08:05.580Z,13.34
2019-03-22T12:10:34.476Z,14.52
2019-03-22T12:13:05.804Z,13.40
2019-03-22T12:15:34.507Z,12.71
2019-03-22T12:18:03.244Z,12.82
2019-03-22T12:20:32.469Z,12.65
2019-03-22T12:23:01.390Z,12.47
2019-03-22T12:25:30.382Z,12.92
2019-03-22T12:27:59.943Z,15.42
2019-03-22T12:30:28.914Z,13.86
2019-03-22T12:32:58.973Z,13.88
2019-03-22T12:35:27.692Z,16.06
2019-03-22T12:37:57.737Z,15.26
2019-03-22T12:40:29.852Z,14.52
2019-03-22T12:42:58.741Z,14.58
2019-03-22T12:45:30.431Z,14.23
2019-03-22T12:47:59.481Z,15.31
2019-03-22T12:50:28.380Z,14.89
2019-03-22T12:52:57.058Z,14.50
2019-03-22T12:55:25.828Z,14.17
2019-03-22T12:57:54.503Z,13.99
2019-03-22T13:00:26.949Z,14.04
2019-03-22T13:02:55.971Z,14.48
2019-03-22T13:05:24.935Z,13.77
2019-03-22T13:07:54.075Z,13.40
2019-03-22T13:10:27.987Z,13.83
2019-03-22T13:12:56.691Z,13.45
2019-03-22T13:15:25.562Z,13.77
2019-03-22T13:17:54.245Z,14.30
2019-03-22T13:20:23.120Z,14.83
2019-03-22T13:22:51.802Z,14.87
2019-03-22T13:25:21.270Z,14.13
2019-03-22T13:27:50.185Z,13.75
2019-03-22T13:30:24.589Z,13.27
2019-03-22T13:32:53.313Z,13.30
2019-03-22T13:35:22.064Z,13.92
2019-03-22T13:37:50.918Z,13.33
2019-03-22T13:40:19.612Z,14.14
2019-03-22T13:42:48.332Z,14.14
2019-03-22T13:45:20.016Z,13.63
2019-03-22T13:47:53.301Z,13.68
2019-03-22T13:50:21.983Z,13.83
2019-03-22T13:52:50.677Z,13.66
2019-03-22T13:55:19.362Z,14.52
2019-03-22T13:57:48.330Z,14.28
2019-03-22T14:00:22.007Z,13.72
2019-03-22T14:02:50.695Z,14.47
2019-03-22T14:05:19.478Z,14.32
2019-03-22T14:07:48.220Z,14.11
2019-03-22T14:10:43.152Z,13.87
2019-03-22T14:13:12.952Z,14.65
2019-03-22T14:15:41.813Z,14.34
2019-03-22T14:18:10.500Z,14.16
2019-03-22T14:20:39.328Z,14.72
2019-03-22T14:23:08.094Z,13.88
2019-03-22T14:25:36.794Z,14.61
2019-03-22T14:28:05.539Z,15.09
2019-03-22T14:30:34.235Z,15.48
2019-03-22T14:33:12.554Z,14.74
2019-03-22T14:35:33.764Z,14.15
2019-03-22T14:38:02.928Z,15.68
2019-03-22T14:40:31.685Z,16.12
2019-03-22T14:43:00.379Z,15.35
2019-03-22T14:45:29.221Z,16.29
2019-03-22T14:47:59.247Z,15.01
2019-03-22T14:50:28.183Z,14.35
2019-03-22T14:52:56.900Z,14.64
2019-03-22T14:55:26.994Z,16.40
2019-03-22T14:57:55.717Z,16.71
2019-03-22T15:00:24.483Z,17.25
2019-03-22T15:02:53.327Z,18.31
2019-03-22T15:05:22.130Z,19.29
2019-03-22T15:07:50.842Z,19.79
2019-03-22T15:10:19.620Z,20.40
2019-03-22T15:12:48.403Z,21.53
2019-03-22T15:15:21.983Z,22.74
2019-03-22T15:17:55.365Z,23.78
2019-03-22T15:20:25.790Z,23.87
2019-03-22T15:23:13.552Z,23.94
2019-03-22T15:26:00.404Z,25.31
2019-03-22T15:28:36.910Z,25.94
2019-03-22T15:31:23.803Z,25.87
2019-03-22T15:34:00.233Z,26.59
2019-03-22T15:36:30.942Z,26.59
2019-03-22T15:39:17.709Z,27.66
2019-03-22T15:41:46.757Z,28.33
2019-03-22T15:44:15.605Z,29.00
2019-03-22T15:46:44.659Z,29.51
2019-03-22T15:49:13.629Z,29.89
2019-03-22T15:51:42.595Z,30.21
2019-03-22T15:54:12.783Z,30.29
2019-03-22T15:56:41.654Z,30.34
2019-03-22T15:59:10.604Z,30.39
2019-03-22T16:01:39.433Z,30.82
2019-03-22T16:04:08.277Z,30.65
2019-03-22T16:06:36.984Z,31.18
2019-03-22T16:09:07.894Z,31.63
2019-03-22T16:11:36.567Z,31.79
2019-03-22T16:14:05.432Z,31.97
2019-03-22T16:16:34.192Z,32.00
2019-03-22T16:19:03.185Z,32.22
2019-03-22T16:21:33.634Z,32.21
2019-03-22T16:24:02.366Z,32.42
2019-03-22T16:26:31.042Z,32.74
2019-03-22T16:28:59.937Z,32.99
2019-03-22T16:31:29.079Z,32.95
2019-03-22T16:33:58.246Z,33.29
2019-03-22T16:36:27.689Z,33.33
2019-03-22T16:38:56.789Z,33.65
2019-03-22T16:41:25.642Z,33.96
2019-03-22T16:43:54.588Z,35.00
2019-03-22T16:46:23.630Z,35.27
2019-03-22T16:48:52.976Z,34.54
2019-03-22T16:51:21.861Z,34.46
2019-03-22T16:53:50.759Z,34.55
2019-03-22T16:56:19.663Z,34.98
2019-03-22T16:58:48.550Z,34.93
2019-03-22T17:01:17.645Z,34.73
2019-03-22T17:03:46.639Z,35.15
2019-03-22T17:06:15.535Z,35.13
2019-03-22T17:08:44.535Z,35.54
2019-03-22T17:11:13.520Z,35.87
2019-03-22T17:13:42.618Z,35.73
2019-03-22T17:16:11.518Z,35.91
2019-03-22T17:18:40.922Z,36.34
2019-03-22T17:21:09.819Z,36.50
2019-03-22T17:23:38.806Z,36.67
2019-03-22T17:26:07.701Z,36.73
2019-03-22T17:28:36.701Z,36.75
2019-03-22T17:31:05.712Z,36.95
2019-03-22T17:33:34.689Z,37.74
2019-03-22T17:36:03.883Z,38.14
2019-03-22T17:38:32.787Z,38.88
2019-03-22T17:41:01.784Z,38.89
2019-03-22T17:43:30.713Z,39.88
2019-03-22T17:45:59.569Z,40.05
2019-03-22T17:48:28.582Z,40.49
2019-03-22T17:50:57.536Z,41.99
2019-03-22T17:53:26.468Z,41.49
2019-03-22T17:55:55.348Z,41.16
2019-03-22T17:58:24.174Z,41.63
2019-03-22T18:00:53.022Z,41.99
2019-03-22T18:03:21.927Z,42.45
2019-03-22T18:05:50.915Z,42.16
2019-03-22T18:08:19.746Z,43.08
2019-03-22T18:10:48.708Z,42.83
2019-03-22T18:13:17.591Z,43.06
2019-03-22T18:15:46.488Z,41.83
2019-03-22T18:18:15.385Z,42.93
2019-03-22T18:20:44.682Z,43.00
2019-03-22T18:23:13.571Z,43.07
2019-03-22T18:25:42.475Z,41.75
2019-03-22T18:28:11.360Z,42.68
2019-03-22T18:30:40.258Z,42.64
2019-03-22T18:33:09.180Z,43.01
2019-03-22T18:35:40.805Z,42.92
2019-03-22T18:38:09.702Z,42.68
2019-03-22T18:40:38.694Z,43.49
2019-03-22T18:43:07.590Z,42.94
2019-03-22T18:45:36.427Z,43.10
2019-03-22T18:48:05.283Z,43.88
2019-03-22T18:50:34.122Z,44.10
2019-03-22T18:53:03.592Z,43.47
2019-03-22T18:55:32.425Z,43.99
2019-03-22T18:58:01.361Z,43.19
2019-03-22T19:00:30.211Z,42.98
2019-03-22T19:02:59.168Z,44.00
2019-03-22T19:05:28.002Z,44.13
2019-03-22T19:07:56.934Z,43.17
2019-03-22T19:10:25.841Z,43.39
2019-03-22T19:12:54.715Z,43.51
2019-03-22T19:15:23.665Z,43.65
2019-03-22T19:17:52.614Z,44.06
2019-03-22T19:20:21.442Z,44.09
2019-03-22T19:22:50.402Z,43.56
2019-03-22T19:25:19.308Z,43.40
2019-03-22T19:27:48.288Z,43.98
2019-03-22T19:30:17.835Z,43.83
2019-03-22T19:32:49.764Z,43.67
2019-03-22T19:35:22.716Z,42.97
2019-03-22T19:38:03.684Z,42.69
2019-03-22T19:40:32.515Z,42.75
2019-03-22T19:43:01.408Z,42.73
2019-03-22T19:45:30.248Z,43.03
2019-03-22T19:47:59.556Z,43.46
2019-03-22T19:50:28.493Z,43.47
2019-03-22T19:52:57.391Z,43.18
2019-03-22T19:55:26.386Z,42.99
2019-03-22T19:57:55.285Z,42.75
2019-03-22T20:00:24.117Z,42.81
2019-03-22T20:02:52.955Z,42.93
2019-03-22T20:05:32.451Z,43.43
2019-03-22T20:08:02.239Z,43.63
2019-03-22T20:10:31.359Z,43.27
2019-03-22T20:13:03.166Z,44.24
2019-03-22T20:15:31.993Z,43.71
2019-03-22T20:18:00.963Z,44.17
2019-03-22T20:20:29.875Z,44.44
2019-03-22T20:22:58.858Z,44.47
2019-03-22T20:25:27.692Z,44.17
2019-03-22T20:27:56.649Z,44.33
2019-03-22T20:30:25.542Z,44.43
2019-03-22T20:32:54.532Z,44.11
2019-03-22T20:35:23.391Z,44.78
2019-03-22T20:37:52.333Z,45.52
2019-03-22T20:40:21.179Z,45.12
2019-03-22T20:42:50.211Z,45.15
2019-03-22T20:45:24.223Z,44.90
2019-03-22T20:47:50.343Z,45.77
2019-03-22T20:50:19.202Z,45.42
2019-03-22T20:52:48.460Z,45.65
2019-03-22T20:55:17.329Z,45.74
2019-03-22T20:57:46.430Z,45.97
2019-03-22T21:00:17.374Z,45.98
2019-03-22T21:02:46.265Z,46.09
2019-03-22T21:05:26.174Z,46.28
2019-03-22T21:07:45.995Z,46.28
2019-03-22T21:10:14.906Z,46.40
2019-03-22T21:12:43.994Z,46.49
2019-03-22T21:15:23.558Z,47.23
2019-03-22T21:17:44.161Z,47.77
2019-03-22T21:20:12.990Z,48.73
2019-03-22T21:22:41.660Z,49.15
2019-03-22T21:25:11.426Z,49.75
2019-03-22T21:27:40.105Z,49.91
2019-03-22T21:30:11.087Z,50.23
2019-03-22T21:32:45.191Z,50.39
2019-03-22T21:35:21.617Z,50.36
2019-03-22T21:37:40.657Z,50.41
2019-03-22T21:40:11.240Z,51.15
2019-03-22T21:42:39.902Z,50.43
2019-03-22T21:45:10.071Z,50.34
2019-03-22T21:47:38.767Z,50.66
2019-03-22T21:50:08.813Z,50.40
2019-03-22T21:52:37.595Z,50.60
2019-03-22T21:55:09.752Z,50.89
2019-03-22T21:57:38.437Z,51.16
2019-03-22T22:00:12.371Z,51.54
2019-03-22T22:02:41.062Z,52.14
2019-03-22T22:05:10.039Z,52.43
2019-03-22T22:07:38.796Z,52.58
2019-03-22T22:10:08.535Z,53.30
2019-03-22T22:12:37.227Z,52.64
2019-03-22T22:15:09.777Z,52.64
2019-03-22T22:17:39.656Z,52.91
2019-03-22T22:20:08.638Z,52.72
2019-03-22T22:22:37.307Z,52.89
2019-03-22T22:25:07.097Z,52.20
2019-03-22T22:27:35.991Z,52.01
2019-03-22T22:30:07.896Z,51.78
2019-03-22T22:32:36.563Z,52.06
2019-03-22T22:35:09.742Z,52.52
2019-03-22T22:37:38.401Z,52.62
2019-03-22T22:40:12.314Z,53.13
2019-03-22T22:42:40.974Z,53.18
2019-03-22T22:45:11.256Z,53.38
2019-03-22T22:47:40.182Z,53.30
2019-03-22T22:50:11.131Z,53.74
2019-03-22T22:52:40.016Z,53.27
2019-03-22T22:55:09.428Z,53.32
2019-03-22T22:57:38.157Z,53.26
2019-03-22T23:00:12.236Z,53.25
2019-03-22T23:02:40.918Z,53.53
2019-03-22T23:05:09.580Z,53.05
2019-03-22T23:07:38.258Z,52.85
2019-03-22T23:10:07.370Z,52.75
2019-03-22T23:12:36.251Z,53.31
2019-03-22T23:15:08.990Z,54.77
2019-03-22T23:17:37.689Z,54.34
2019-03-22T23:20:07.872Z,53.63
2019-03-22T23:22:36.543Z,53.78
2019-03-22T23:25:08.016Z,54.16
2019-03-22T23:27:37.294Z,54.00
2019-03-22T23:30:13.372Z,55.92
2019-03-22T23:32:42.255Z,53.81
2019-03-22T23:35:11.321Z,53.67
2019-03-22T23:37:40.077Z,53.81
2019-03-22T23:40:09.674Z,54.48
2019-03-22T23:42:38.389Z,54.04
2019-03-22T23:45:08.636Z,54.29
2019-03-22T23:47:37.332Z,53.56
2019-03-22T23:50:10.136Z,53.99
2019-03-22T23:52:38.849Z,54.28
2019-03-22T23:55:07.926Z,54.32
2019-03-22T23:57:36.602Z,54.90
